Time;durP1;ratioP1;P1;durP2;ratioP2;P2;SDS_P1;SDS_P2;PMS_P1;PMS_P2;Temp;Humidity;BMP_temperature;BMP_pressure;BME280_temperature;BME280_humidity;BME280_pressure;Samples;Min_cycle;Max_cycle;Signal;HPM_P1;HPM_P2
2023/06/28 00:05:54;;;;;;;4.30;2.10;;;;;;;12.52;67.66;98354.91;435994;1251;109366;-42
2023/06/28 00:15:59;;;;;;;11.60;1.90;;;;;;;12.51;68.02;98348.38;435885;1252;101480;-43
2023/06/28 00:26:06;;;;;;;3.80;1.60;;;;;;;12.49;68.22;98352.75;436052;1254;108423;-42
2023/06/28 00:36:14;;;;;;;8.80;1.80;;;;;;;12.49;68.76;98354.34;436079;1249;99194;-42
2023/06/28 00:46:21;;;;;;;8.70;2.40;;;;;;;12.48;69.03;98346.27;435959;1254;110879;-42
2023/06/28 00:56:29;;;;;;;4.80;1.90;;;;;;;12.40;68.97;98342.95;435991;1263;107973;-41
2023/06/28 01:26:51;;;;;;;7.90;2.20;;;;;;;12.00;69.78;98328.69;436377;1261;99255;-42
2023/06/28 01:47:08;;;;;;;2.60;1.50;;;;;;;11.73;70.15;98326.73;436457;1252;107786;-42
2023/06/28 01:57:14;;;;;;;2.10;1.20;;;;;;;11.64;70.58;98319.98;436336;1253;99314;-41
2023/06/28 02:07:21;;;;;;;4.90;1.50;;;;;;;11.59;71.03;98316.88;436119;1253;108249;-41
2023/06/28 02:17:30;;;;;;;2.80;1.20;;;;;;;11.63;71.24;98314.78;436181;1262;101492;-43
2023/06/28 02:27:38;;;;;;;2.90;1.80;;;;;;;11.68;71.58;98314.80;436440;1252;111417;-44
2023/06/28 02:37:44;;;;;;;4.10;1.90;;;;;;;11.54;71.63;98324.70;436029;1254;108172;-42
2023/06/28 02:47:51;;;;;;;2.50;1.40;;;;;;;11.59;71.80;98326.52;436159;1252;99218;-43
2023/06/28 02:57:59;;;;;;;5.90;1.80;;;;;;;11.87;72.08;98332.06;436154;1254;109311;-44
2023/06/28 03:08:05;;;;;;;3.50;1.80;;;;;;;12.17;72.01;98326.95;436188;1253;99240;-45
2023/06/28 03:18:13;;;;;;;3.30;1.70;;;;;;;12.89;72.03;98322.81;436349;1254;110956;-43
2023/06/28 03:28:20;;;;;;;4.10;1.90;;;;;;;15.03;70.82;98322.08;436075;1248;423464;-43
2023/06/28 03:38:27;;;;;;;3.70;2.20;;;;;;;16.34;69.24;98319.48;436234;1248;98046;-41
2023/06/28 03:48:35;;;;;;;3.90;1.90;;;;;;;17.00;68.36;98333.39;436220;1253;109431;-43
2023/06/28 03:58:41;;;;;;;4.50;1.60;;;;;;;18.66;66.65;98332.13;436217;1251;99233;-42
2023/06/28 04:08:48;;;;;;;2.20;1.30;;;;;;;19.94;64.91;98325.61;436398;1247;112111;-43
2023/06/28 04:18:55;;;;;;;3.60;1.20;;;;;;;20.87;63.01;98321.13;436303;1253;107937;-44
2023/06/28 04:29:03;;;;;;;3.50;1.40;;;;;;;21.74;61.55;98328.20;436315;1248;98700;-44
2023/06/28 04:39:10;;;;;;;2.50;1.50;;;;;;;22.25;60.09;98321.35;436279;1253;107878;-41
2023/06/28 04:49:18;;;;;;;3.40;1.60;;;;;;;22.71;58.83;98328.80;436407;1253;99231;-42
2023/06/28 04:59:23;;;;;;;;;;;;;;;23.07;57.32;98337.84;436354;1261;111498;-41
2023/06/28 05:09:31;;;;;;;2.80;1.20;;;;;;;22.62;55.78;98333.61;436389;1252;108307;-41
2023/06/28 05:19:36;;;;;;;;;;;;;;;22.36;55.03;98329.95;436327;1253;99317;-42
2023/06/28 05:29:43;;;;;;;9.80;1.70;;;;;;;22.26;54.99;98317.48;436362;1253;108260;-41
2023/06/28 05:39:51;;;;;;;6.00;1.30;;;;;;;22.14;54.46;98316.89;436460;1252;99299;-42
2023/06/28 05:49:58;;;;;;;3.20;1.60;;;;;;;22.28;54.26;98317.10;436279;1250;110931;-41
2023/06/28 06:00:08;;;;;;;4.80;1.60;;;;;;;22.43;53.79;98317.89;436162;1248;108406;-42
2023/06/28 06:10:16;;;;;;;4.00;1.80;;;;;;;21.88;53.32;98335.73;436407;1254;99211;-41
2023/06/28 06:20:24;;;;;;;3.00;1.40;;;;;;;21.24;53.61;98341.86;436420;1248;109413;-42
2023/06/28 06:30:30;;;;;;;4.00;1.60;;;;;;;21.41;53.95;98333.52;436294;1251;97957;-42
2023/06/28 06:40:38;;;;;;;2.10;1.30;;;;;;;21.79;52.22;98325.59;436275;1248;111001;-40
2023/06/28 06:50:46;;;;;;;4.30;1.40;;;;;;;21.35;52.84;98331.84;436158;1252;108555;-41
2023/06/28 07:00:53;;;;;;;7.00;1.50;;;;;;;20.75;53.16;98340.23;436413;1253;99231;-41
2023/06/28 07:11:00;;;;;;;1.80;1.10;;;;;;;20.16;53.81;98340.06;436177;1248;108845;-41
2023/06/28 07:21:08;;;;;;;5.50;1.60;;;;;;;19.98;54.46;98338.55;436422;1248;99234;-42
2023/06/28 07:31:16;;;;;;;3.70;1.80;;;;;;;21.18;54.81;98336.27;436311;1253;112058;-43
2023/06/28 07:41:22;;;;;;;;;;;;;;;22.19;53.26;98333.55;436229;1253;107828;-41
2023/06/28 07:51:29;;;;;;;5.10;2.30;;;;;;;22.39;52.87;98330.45;436387;1251;98267;-41
2023/06/28 08:01:38;;;;;;;7.80;1.90;;;;;;;22.88;52.02;98324.66;436345;1253;108829;-42
2023/06/28 08:11:45;;;;;;;6.50;1.80;;;;;;;22.92;51.07;98320.14;436299;1253;98910;-41
2023/06/28 08:21:53;;;;;;;4.10;1.50;;;;;;;22.74;50.45;98306.89;436228;1253;111745;-42
2023/06/28 08:32:01;;;;;;;4.70;1.20;;;;;;;22.61;49.45;98295.63;436458;1253;109013;-42
2023/06/28 08:42:08;;;;;;;5.30;1.50;;;;;;;22.74;48.78;98285.20;436332;1248;99279;-42
2023/06/28 08:52:17;;;;;;;2.60;1.10;;;;;;;22.16;47.96;98278.43;436298;1252;107502;-42
2023/06/28 09:02:28;;;;;;;10.80;1.60;;;;;;;21.92;48.50;98281.15;436246;1253;98807;-43
2023/06/28 09:12:36;;;;;;;5.20;1.60;;;;;;;22.23;47.54;98273.40;436543;1247;110589;-42
2023/06/28 09:22:43;;;;;;;4.10;1.10;;;;;;;22.17;46.12;98266.66;436267;1248;108570;-40
2023/06/28 09:32:51;;;;;;;3.80;1.60;;;;;;;22.29;46.03;98279.58;436435;1253;99148;-42
2023/06/28 09:42:57;;;;;;;2.80;1.40;;;;;;;21.95;45.81;98280.48;436151;1248;109685;-43
2023/06/28 09:53:06;;;;;;;5.50;1.60;;;;;;;21.53;45.91;98279.95;436496;1248;98860;-42
2023/06/28 10:13:23;;;;;;;6.30;1.70;;;;;;;22.93;44.53;98278.02;436369;1247;108516;-41
2023/06/28 10:23:35;;;;;;;5.30;1.50;;;;;;;21.79;45.23;98272.06;436330;1251;99234;-42
2023/06/28 10:33:43;;;;;;;7.50;1.60;;;;;;;22.63;45.33;98262.20;436255;1253;107825;-41
2023/06/28 10:54:09;;;;;;;4.10;1.40;;;;;;;21.61;45.70;98263.95;436280;1253;112870;-43
2023/06/28 11:14:21;;;;;;;3.90;1.30;;;;;;;22.36;44.93;98253.83;436512;1253;99214;-42
2023/06/28 11:24:45;;;;;;;5.00;1.60;;;;;;;22.57;43.96;98260.30;436240;1253;108501;-43
2023/06/28 11:34:52;;;;;;;2.00;0.80;;;;;;;22.85;41.71;98260.98;436466;1248;97982;-42
2023/06/28 11:44:59;;;;;;;5.10;1.20;;;;;;;22.92;41.41;98263.52;436332;1248;111733;-43
2023/06/28 11:55:08;;;;;;;2.80;0.90;;;;;;;22.39;42.34;98273.83;436383;1248;108796;-42
2023/06/28 12:05:17;;;;;;;5.10;1.90;;;;;;;22.01;42.83;98274.52;436405;1253;98823;-41
2023/06/28 12:25:31;;;;;;;9.30;2.10;;;;;;;21.03;45.17;98307.36;436485;1248;98036;-44
2023/06/28 12:35:45;;;;;;;6.50;2.10;;;;;;;20.64;46.53;98317.08;436377;1251;111923;-42
2023/06/28 12:45:56;;;;;;;11.30;2.40;;;;;;;20.10;48.47;98339.39;436436;1251;109342;-43
2023/06/28 12:56:03;;;;;;;7.60;1.50;;;;;;;19.60;50.35;98356.40;436413;1249;98000;-41
2023/06/28 13:16:17;;;;;;;4.50;1.20;;;;;;;19.42;51.41;98366.29;436821;1247;99227;-43
2023/06/28 13:26:24;;;;;;;9.10;1.50;;;;;;;19.09;51.97;98373.40;436443;1253;112147;-42
2023/06/28 13:36:32;;;;;;;2.30;1.40;;;;;;;18.67;52.99;98375.05;436483;1253;109439;-44
2023/06/28 13:46:39;;;;;;;12.70;1.90;;;;;;;17.76;54.66;98386.16;436385;1252;99234;-43
2023/06/28 13:56:46;;;;;;;2.70;1.40;;;;;;;17.02;56.37;98397.95;436359;1253;108932;-42
2023/06/28 14:06:53;;;;;;;4.10;1.70;;;;;;;16.45;58.63;98395.02;436322;1251;98870;-44
2023/06/28 14:27:07;;;;;;;4.30;1.70;;;;;;;15.95;61.31;98387.54;436191;1253;108486;-42
2023/06/28 14:37:15;;;;;;;2.90;2.60;;;;;;;15.80;62.85;98377.12;436378;1254;98318;-41
2023/06/28 14:47:22;;;;;;;3.70;2.70;;;;;;;15.61;63.75;98380.02;436356;1251;107890;-42
2023/06/28 14:57:31;;;;;;;3.70;2.10;;;;;;;15.37;64.66;98385.07;436370;1253;97988;-45
2023/06/28 15:07:38;;;;;;;6.80;2.40;;;;;;;15.43;65.31;98384.54;436387;1253;111777;-43
2023/06/28 15:17:46;;;;;;;2.60;2.10;;;;;;;15.25;66.35;98380.38;436353;1252;107899;-44
2023/06/28 15:27:52;;;;;;;3.70;2.40;;;;;;;15.29;66.72;98380.37;436170;1253;516891;-43
2023/06/28 15:37:59;;;;;;;4.60;3.30;;;;;;;15.16;67.50;98374.89;436811;1253;108468;-43
2023/06/28 15:48:07;;;;;;;5.70;3.20;;;;;;;15.16;68.03;98373.71;437571;1253;99239;-43
2023/06/28 15:58:15;;;;;;;3.30;2.50;;;;;;;15.03;68.98;98363.85;436355;1253;111809;-43
2023/06/28 16:08:22;;;;;;;8.40;3.90;;;;;;;14.78;70.60;98362.09;436345;1253;108446;-44
2023/06/28 16:18:29;;;;;;;5.50;4.00;;;;;;;14.81;71.01;98361.46;436228;1253;99243;-43
2023/06/28 16:28:37;;;;;;;6.10;3.70;;;;;;;15.02;71.03;98357.18;436286;1253;108537;-46
2023/06/28 16:38:45;;;;;;;4.10;3.70;;;;;;;15.11;71.59;98354.70;436317;1251;98581;-45
2023/06/28 16:48:52;;;;;;;5.30;3.40;;;;;;;15.37;71.44;98351.09;436343;1252;112143;-43
2023/06/28 16:58:58;;;;;;;5.70;3.00;;;;;;;15.36;71.81;98353.84;436319;1253;108448;-43
2023/06/28 17:19:12;;;;;;;6.00;2.80;;;;;;;14.99;72.68;98352.71;436279;1247;107778;-43
2023/06/28 17:29:20;;;;;;;2.50;2.20;;;;;;;14.93;73.24;98359.52;436222;1253;99253;-43
2023/06/28 17:39:27;;;;;;;4.20;3.20;;;;;;;14.81;73.86;98353.31;436095;1253;111879;-43
2023/06/28 17:49:34;;;;;;;4.50;2.80;;;;;;;14.74;75.23;98357.41;436134;1254;107466;-43
2023/06/28 17:59:41;;;;;;;3.20;2.10;;;;;;;14.74;75.42;98356.08;436433;1253;99237;-44
2023/06/28 18:09:49;;;;;;;7.70;3.40;;;;;;;14.77;75.90;98344.27;436281;1253;107391;-42
2023/06/28 18:19:56;;;;;;;4.90;3.40;;;;;;;14.78;76.58;98351.83;436263;1253;98836;-43
2023/06/28 18:30:04;;;;;;;7.10;4.70;;;;;;;14.89;76.88;98352.58;436397;1248;112193;-43
2023/06/28 18:40:09;;;;;;;9.30;4.00;;;;;;;14.97;76.82;98361.02;436406;1254;106973;-43
2023/06/28 18:50:16;;;;;;;5.30;4.00;;;;;;;14.96;77.67;98365.13;436378;1253;99279;-43
2023/06/28 19:00:23;;;;;;;7.30;3.90;;;;;;;14.98;77.68;98366.55;436309;1254;107900;-45
2023/06/28 19:10:30;;;;;;;6.10;4.50;;;;;;;14.99;77.90;98371.09;436394;1261;99231;-43
2023/06/28 19:30:44;;;;;;;6.70;4.70;;;;;;;15.00;78.11;98393.30;436208;1248;107310;-42
2023/06/28 19:40:52;;;;;;;4.80;4.20;;;;;;;15.02;78.56;98397.81;436452;1253;98105;-44
2023/06/28 20:01:06;;;;;;;7.90;4.60;;;;;;;15.07;79.03;98410.50;436427;1253;99047;-42
2023/06/28 20:11:15;;;;;;;8.50;4.80;;;;;;;15.13;79.10;98415.88;436254;1251;111888;-43
2023/06/28 20:21:23;;;;;;;11.90;5.50;;;;;;;15.16;79.23;98419.80;436316;1261;108241;-43
2023/06/28 20:31:31;;;;;;;10.90;6.20;;;;;;;15.15;79.53;98428.30;436333;1261;99424;-43
2023/06/28 20:41:42;;;;;;;9.20;5.60;;;;;;;15.17;79.47;98438.76;436451;1253;108012;-43
2023/06/28 20:51:49;;;;;;;12.00;6.30;;;;;;;15.19;79.64;98442.49;436345;1253;99228;-42
2023/06/28 21:01:56;;;;;;;12.00;5.70;;;;;;;15.18;80.06;98443.02;436324;1261;112145;-43
2023/06/28 21:12:03;;;;;;;9.90;7.20;;;;;;;15.23;80.16;98441.91;436315;1254;106741;-44
2023/06/28 21:22:10;;;;;;;12.90;7.10;;;;;;;15.27;80.59;98444.19;436277;1261;99237;-43
2023/06/28 21:32:18;;;;;;;15.20;6.50;;;;;;;15.35;80.57;98451.98;436236;1253;107846;-43
2023/06/28 21:42:25;;;;;;;9.20;6.60;;;;;;;15.42;80.44;98443.00;436276;1253;99218;-45
2023/06/28 21:52:32;;;;;;;12.40;8.00;;;;;;;15.44;80.60;98450.88;436270;1261;111432;-42
2023/06/28 22:02:38;;;;;;;14.50;7.00;;;;;;;15.49;80.51;98453.33;436177;1263;107245;-43
2023/06/28 22:33:01;;;;;;;17.50;8.40;;;;;;;15.43;81.15;98466.61;436383;1253;99231;-43
2023/06/28 22:43:07;;;;;;;14.60;8.40;;;;;;;15.35;81.30;98460.83;436306;1252;111399;-43
2023/06/28 22:53:14;;;;;;;11.80;8.60;;;;;;;15.40;81.45;98467.82;435200;1250;107900;-44
2023/06/28 23:03:23;;;;;;;14.20;8.20;;;;;;;15.49;81.36;98475.29;435201;1254;99314;-42
2023/06/28 23:13:32;;;;;;;12.30;7.20;;;;;;;15.59;81.52;98482.45;435298;1254;107993;-43
2023/06/28 23:23:41;;;;;;;;;;;;;;;15.62;81.59;98486.75;435252;1251;99256;-43
2023/06/28 23:33:48;;;;;;;17.60;9.40;;;;;;;15.62;81.58;98487.06;435469;1253;111367;-43
2023/06/28 23:43:55;;;;;;;24.70;8.60;;;;;;;15.64;81.72;98482.44;435117;1253;109291;-43
2023/06/28 23:54:02;;;;;;;17.50;10.00;;;;;;;15.69;81.86;98486.21;435316;1254;97954;-42
